Goetsenhoven, Belgium

1:59 PM CET on October 31, 2014 (GMT +0100)
IRGIONWA10 | Change Station
CLOSE
Current Station
Personal Weather Station
Location: Jodoigne, ReGION WALLONNE
Elevation: 256 ft
Nearby Weather Stations

Elev 256 ft 50.73 °N, 4.87 °E | Updated 4 minutes ago

Clear
Clear
65.4 °F
Feels Like 65.4 °F
N
4.0
Wind Variable Wind from SSW
Gusts 4.0 mph

Today
High -- | Low -- °F
--% Chance of Precip.
Yesterday
High -- | Low -- °F
Precip. -- in
7:29 AM 5:17 PM
First Quarter, 55% visible
Pressure 30.18 in
Visibility -9999.0 miles
Clouds
Dew Point 58 °F
Humidity 76%
Rainfall 0.00 in
Snow Depth Not available.
UV 0.9 out of 12
Pollen Not available.
Air Quality Not available.
Flu Activity Not available.
METAR EBBR 311250Z 19005KT CAVOK 19/13 Q1022 NOSIG

More Conditions Fewer Conditions

Pressure 30.18 in
Visibility -9999.0 miles
Clouds
Dew Point 58 °F
Humidity 76%
Rainfall 0.00 in
Snow Depth Not available.
UV 0.9 out of 12
Pollen Not available.
Air Quality Not available.
Flu Activity Not available.
METAR EBBR 311250Z 19005KT CAVOK 19/13 Q1022 NOSIG

More Conditions Fewer Conditions

10-Day Weather Forecast

Almanac

Astronomy

Oct. 31, 2014 Rise Set
Actual Time
Civil Twilight
Nautical Twilight
Astronomical Twilight
Moon
Length of Visible Light
Length of Day
Tomorrow will be .
, % of the Moon is Illuminated

Today's Extremes

Country Highs Country Lows

Community

WunderPhotos

Upload Photos

1,766,593 photos uploaded!

WunderBlogs® & News

Nearby

Air Quality

  Air Quality AQ Index Pollutant
Not available.

Snow Depth

Station Depth Elevation

Earthquake Activity

City Distance Mag. Time & Date
Minimum magnitude displayed is 2.5.

Coastal Water Temperatures

Place Temperature

Nearby Weather Stations